createdAt,value
2018-11-26T00:00:04.783Z,4.30
2018-11-26T00:01:04.925Z,4.30
2018-11-26T00:02:10.201Z,4.30
2018-11-26T00:03:05.299Z,4.30
2018-11-26T00:04:07.937Z,4.30
2018-11-26T00:05:04.835Z,4.20
2018-11-26T00:06:07.528Z,4.30
2018-11-26T00:07:05.450Z,4.20
2018-11-26T00:08:05.577Z,4.20
2018-11-26T00:09:04.708Z,4.20
2018-11-26T00:10:07.336Z,4.20
2018-11-26T00:11:05.266Z,4.20
2018-11-26T00:12:08.008Z,4.20
2018-11-26T00:13:05.113Z,4.20
2018-11-26T00:14:07.938Z,4.20
2018-11-26T00:15:07.399Z,4.20
2018-11-26T00:16:05.339Z,4.20
2018-11-26T00:17:05.641Z,4.20
2018-11-26T00:18:04.732Z,4.20
2018-11-26T00:19:07.357Z,4.20
2018-11-26T00:20:07.898Z,4.20
2018-11-26T00:21:04.821Z,4.20
2018-11-26T00:22:07.581Z,4.20
2018-11-26T00:23:05.634Z,4.20
2018-11-26T00:24:07.442Z,4.20
2018-11-26T00:25:07.950Z,4.20
2018-11-26T00:26:04.972Z,4.20
2018-11-26T00:27:07.701Z,4.20
2018-11-26T00:28:04.696Z,4.20
2018-11-26T00:29:05.340Z,4.20
2018-11-26T00:30:05.417Z,4.30
2018-11-26T00:31:08.047Z,4.30
2018-11-26T00:32:05.014Z,4.20
2018-11-26T00:33:05.097Z,4.30
2018-11-26T00:34:07.759Z,4.30
2018-11-26T00:35:09.776Z,4.20
2018-11-26T00:36:04.715Z,4.20
2018-11-26T00:37:05.045Z,4.20
2018-11-26T00:38:07.662Z,4.20
2018-11-26T00:39:05.627Z,4.30
2018-11-26T00:40:04.683Z,4.30
2018-11-26T00:41:07.378Z,4.20
2018-11-26T00:42:05.436Z,4.20
2018-11-26T00:43:08.104Z,4.20
2018-11-26T00:44:05.041Z,4.30
2018-11-26T00:45:05.179Z,4.30
2018-11-26T00:46:05.274Z,4.30
2018-11-26T00:47:05.502Z,4.30
2018-11-26T00:48:04.641Z,4.30
2018-11-26T00:49:07.365Z,4.30
2018-11-26T00:50:07.881Z,4.30
2018-11-26T00:51:07.365Z,4.30
2018-11-26T00:52:05.293Z,4.30
2018-11-26T00:53:05.448Z,4.30
2018-11-26T00:54:05.573Z,4.30
2018-11-26T00:55:04.688Z,4.30
2018-11-26T00:56:04.780Z,4.30
2018-11-26T00:57:04.841Z,4.20
2018-11-26T00:58:07.446Z,4.30
2018-11-26T00:59:05.394Z,4.20
2018-11-26T01:00:07.984Z,4.30
2018-11-26T01:01:04.892Z,4.30
2018-11-26T01:02:04.637Z,4.30
2018-11-26T01:03:07.687Z,4.30
2018-11-26T01:04:08.149Z,4.30
2018-11-26T01:05:05.143Z,4.30
2018-11-26T01:06:07.812Z,4.30
2018-11-26T01:07:04.658Z,4.30
2018-11-26T01:08:07.198Z,4.30
2018-11-26T01:09:05.048Z,4.30
2018-11-26T01:10:05.039Z,4.30
2018-11-26T01:11:05.198Z,4.30
2018-11-26T01:12:05.317Z,4.30
2018-11-26T01:13:05.364Z,4.30
2018-11-26T01:14:05.439Z,4.30
2018-11-26T01:15:08.020Z,4.30
2018-11-26T01:16:04.949Z,4.30
2018-11-26T01:17:07.546Z,4.30
2018-11-26T01:18:05.460Z,4.30
2018-11-26T01:19:08.149Z,4.30
2018-11-26T01:20:07.838Z,4.40
2018-11-26T01:21:07.388Z,4.30
2018-11-26T01:22:05.365Z,4.30
2018-11-26T01:23:05.456Z,4.40
2018-11-26T01:24:05.527Z,4.30
2018-11-26T01:25:08.225Z,4.30
2018-11-26T01:26:07.780Z,4.40
2018-11-26T01:27:07.453Z,4.30
2018-11-26T01:28:05.410Z,4.30
2018-11-26T01:29:05.511Z,4.40
2018-11-26T01:30:08.249Z,4.40
2018-11-26T01:31:05.143Z,4.30
2018-11-26T01:32:05.300Z,4.40
2018-11-26T01:33:05.439Z,4.30
2018-11-26T01:34:05.555Z,4.40
2018-11-26T01:35:05.603Z,4.30
2018-11-26T01:36:04.621Z,4.30
2018-11-26T01:37:07.256Z,4.30
2018-11-26T01:38:05.131Z,4.30
2018-11-26T01:39:07.777Z,4.30
2018-11-26T01:40:04.684Z,4.30
2018-11-26T01:41:04.815Z,4.30
2018-11-26T01:42:04.843Z,4.30
2018-11-26T01:43:09.998Z,4.30
2018-11-26T01:44:04.913Z,4.30
2018-11-26T01:45:04.960Z,4.30
2018-11-26T01:46:05.103Z,4.30
2018-11-26T01:47:07.682Z,4.30
2018-11-26T01:48:05.665Z,4.30
2018-11-26T01:49:04.684Z,4.30
2018-11-26T01:50:04.776Z,4.30
2018-11-26T01:51:07.400Z,4.30
2018-11-26T01:52:05.394Z,4.30
2018-11-26T01:53:05.549Z,4.30
2018-11-26T01:54:05.656Z,4.30
2018-11-26T01:55:04.739Z,4.30
2018-11-26T01:56:04.816Z,4.30
2018-11-26T01:57:04.840Z,4.30
2018-11-26T01:58:05.118Z,4.30
2018-11-26T01:59:05.185Z,4.30
2018-11-26T02:00:07.830Z,4.30
2018-11-26T02:01:07.271Z,4.30
2018-11-26T02:02:05.203Z,4.30
2018-11-26T02:03:05.327Z,4.30
2018-11-26T02:04:08.013Z,4.40
2018-11-26T02:05:05.071Z,4.40
2018-11-26T02:06:05.152Z,4.30
2018-11-26T02:07:10.387Z,4.30
2018-11-26T02:08:05.299Z,4.30
2018-11-26T02:09:05.341Z,4.30
2018-11-26T02:10:05.397Z,4.40
2018-11-26T02:11:05.510Z,4.30
2018-11-26T02:12:04.864Z,4.40
2018-11-26T02:13:05.074Z,4.40
2018-11-26T02:14:10.218Z,4.40
2018-11-26T02:15:05.063Z,4.40
2018-11-26T02:16:05.106Z,4.40
2018-11-26T02:17:05.128Z,4.40
2018-11-26T02:18:05.218Z,4.40
2018-11-26T02:19:05.228Z,4.40
2018-11-26T02:20:05.269Z,4.40
2018-11-26T02:21:05.322Z,4.40
2018-11-26T02:22:05.706Z,4.40
2018-11-26T02:23:07.311Z,4.50
2018-11-26T02:24:07.801Z,4.50
2018-11-26T02:25:04.671Z,4.40
2018-11-26T02:26:07.398Z,4.50
2018-11-26T02:27:05.397Z,4.40
2018-11-26T02:28:05.484Z,4.50
2018-11-26T02:29:05.157Z,4.50
2018-11-26T02:30:05.284Z,4.40
2018-11-26T02:31:05.410Z,4.50
2018-11-26T02:32:05.488Z,4.50
2018-11-26T02:33:05.553Z,4.40
2018-11-26T02:34:08.226Z,4.50
2018-11-26T02:35:07.824Z,4.50
2018-11-26T02:36:04.781Z,4.50
2018-11-26T02:37:04.786Z,4.50
2018-11-26T02:38:07.468Z,4.50
2018-11-26T02:39:05.715Z,4.50
2018-11-26T02:40:09.903Z,4.50
2018-11-26T02:41:04.767Z,4.50
2018-11-26T02:42:04.961Z,4.50
2018-11-26T02:43:05.040Z,4.50
2018-11-26T02:44:05.227Z,4.50
2018-11-26T02:45:05.336Z,4.50
2018-11-26T02:46:05.421Z,4.50
2018-11-26T02:47:05.397Z,4.50
2018-11-26T02:48:05.428Z,4.50
2018-11-26T02:49:08.142Z,4.50
2018-11-26T02:50:07.566Z,4.50
2018-11-26T02:51:05.584Z,4.50
2018-11-26T02:52:04.664Z,4.50
2018-11-26T02:53:04.730Z,4.50
2018-11-26T02:54:07.450Z,4.60
2018-11-26T02:55:08.069Z,4.60
2018-11-26T02:56:07.579Z,4.60
2018-11-26T02:57:05.471Z,4.50
2018-11-26T02:58:05.505Z,4.60
2018-11-26T02:59:05.501Z,4.50
2018-11-26T03:00:08.076Z,4.50
2018-11-26T03:01:04.971Z,4.50
2018-11-26T03:02:05.043Z,4.60
2018-11-26T03:03:07.768Z,4.60
2018-11-26T03:04:04.694Z,4.60
2018-11-26T03:05:04.771Z,4.60
2018-11-26T03:06:07.405Z,4.60
2018-11-26T03:07:05.394Z,4.60
2018-11-26T03:08:05.512Z,4.60
2018-11-26T03:09:04.635Z,4.60
2018-11-26T03:10:04.824Z,4.60
2018-11-26T03:11:04.918Z,4.60
2018-11-26T03:12:05.003Z,4.60
2018-11-26T03:13:07.550Z,4.60
2018-11-26T03:14:05.495Z,4.60
2018-11-26T03:15:05.593Z,4.60
2018-11-26T03:16:05.578Z,4.60
2018-11-26T03:17:07.188Z,4.60
2018-11-26T03:18:05.074Z,4.60
2018-11-26T03:19:05.229Z,4.70
2018-11-26T03:20:05.460Z,4.70
2018-11-26T03:21:05.553Z,4.60
2018-11-26T03:22:05.567Z,4.70
2018-11-26T03:23:05.638Z,4.70
2018-11-26T03:24:07.350Z,4.70
2018-11-26T03:25:05.258Z,4.60
2018-11-26T03:26:08.029Z,4.60
2018-11-26T03:27:04.939Z,4.60
2018-11-26T03:28:10.203Z,4.60
2018-11-26T03:29:07.644Z,4.60
2018-11-26T03:30:08.194Z,4.70
2018-11-26T03:31:10.131Z,4.60
2018-11-26T03:32:07.689Z,4.60
2018-11-26T03:33:05.627Z,4.70
2018-11-26T03:34:09.757Z,4.60
2018-11-26T03:35:07.173Z,4.60
2018-11-26T03:36:05.057Z,4.60
2018-11-26T03:37:10.147Z,4.60
2018-11-26T03:38:04.999Z,4.60
2018-11-26T03:39:05.038Z,4.60
2018-11-26T03:40:05.046Z,4.60
2018-11-26T03:41:05.085Z,4.70
2018-11-26T03:42:05.101Z,4.60
2018-11-26T03:43:07.772Z,4.60
2018-11-26T03:44:04.698Z,4.60
2018-11-26T03:45:04.886Z,4.60
2018-11-26T03:46:04.992Z,4.60
2018-11-26T03:47:07.737Z,4.60
2018-11-26T03:48:04.693Z,4.60
2018-11-26T03:49:04.711Z,4.60
2018-11-26T03:50:04.828Z,4.60
2018-11-26T03:51:04.923Z,4.60
2018-11-26T03:52:08.343Z,4.60
2018-11-26T03:53:05.401Z,4.60
2018-11-26T03:54:08.120Z,4.60
2018-11-26T03:55:05.026Z,4.60
2018-11-26T03:56:05.094Z,4.60
2018-11-26T03:57:07.308Z,4.60
2018-11-26T03:58:05.203Z,4.60
2018-11-26T03:59:04.691Z,4.60
2018-11-26T04:00:10.038Z,4.60
2018-11-26T04:01:07.510Z,4.60
2018-11-26T04:02:05.469Z,4.60
2018-11-26T04:03:05.640Z,4.60
2018-11-26T04:04:07.362Z,4.60
2018-11-26T04:05:05.148Z,4.60
2018-11-26T04:06:05.296Z,4.60
2018-11-26T04:07:05.389Z,4.60
2018-11-26T04:08:08.071Z,4.70
2018-11-26T04:09:04.961Z,4.60
2018-11-26T04:10:07.557Z,4.60
2018-11-26T04:11:08.242Z,4.60
2018-11-26T04:12:05.218Z,4.60
2018-11-26T04:13:05.360Z,4.60
2018-11-26T04:14:08.113Z,4.60
2018-11-26T04:15:07.552Z,4.60
2018-11-26T04:16:05.521Z,4.60
2018-11-26T04:17:04.642Z,4.60
2018-11-26T04:18:04.826Z,4.60
2018-11-26T04:19:04.962Z,4.60
2018-11-26T04:20:05.078Z,4.60
2018-11-26T04:21:05.132Z,4.60
2018-11-26T04:22:07.664Z,4.60
2018-11-26T04:23:05.569Z,4.60
2018-11-26T04:24:07.226Z,4.60
2018-11-26T04:25:05.191Z,4.60
2018-11-26T04:26:05.403Z,4.60
2018-11-26T04:27:07.988Z,4.60
2018-11-26T04:28:07.500Z,4.60
2018-11-26T04:29:05.204Z,4.60
2018-11-26T04:30:07.827Z,4.60
2018-11-26T04:31:07.341Z,4.60
2018-11-26T04:32:05.179Z,4.60
2018-11-26T04:33:05.240Z,4.60
2018-11-26T04:34:05.286Z,4.60
2018-11-26T04:35:07.965Z,4.60
2018-11-26T04:36:07.391Z,4.60
2018-11-26T04:37:05.252Z,4.60
2018-11-26T04:38:07.836Z,4.60
2018-11-26T04:39:04.860Z,4.60
2018-11-26T04:40:07.438Z,4.60
2018-11-26T04:41:07.932Z,4.60
2018-11-26T04:42:07.562Z,4.60
2018-11-26T04:43:05.741Z,4.60
2018-11-26T04:44:04.874Z,4.50
2018-11-26T04:45:05.168Z,4.60
2018-11-26T04:46:05.369Z,4.60
2018-11-26T04:47:05.445Z,4.60
2018-11-26T04:48:05.486Z,4.60
2018-11-26T04:49:07.702Z,4.50
2018-11-26T04:50:05.584Z,4.60
2018-11-26T04:51:08.112Z,4.60
2018-11-26T04:52:04.989Z,4.60
2018-11-26T04:53:05.022Z,4.50
2018-11-26T04:54:05.076Z,4.60
2018-11-26T04:55:05.098Z,4.60
2018-11-26T04:56:05.268Z,4.60
2018-11-26T04:57:05.464Z,4.60
2018-11-26T04:58:05.550Z,4.60
2018-11-26T04:59:05.648Z,4.60
2018-11-26T05:00:04.688Z,4.50
2018-11-26T05:01:04.772Z,4.50
2018-11-26T05:02:04.863Z,4.60
2018-11-26T05:03:05.137Z,4.50
2018-11-26T05:04:07.899Z,4.60
2018-11-26T05:05:04.855Z,4.60
2018-11-26T05:06:04.902Z,4.60
2018-11-26T05:07:05.042Z,4.60
2018-11-26T05:08:05.127Z,4.50
2018-11-26T05:09:07.393Z,4.50
2018-11-26T05:10:07.922Z,4.50
2018-11-26T05:11:04.956Z,4.60
2018-11-26T05:12:07.320Z,4.50
2018-11-26T05:13:07.904Z,4.50
2018-11-26T05:14:04.860Z,4.50
2018-11-26T05:15:07.408Z,4.60
2018-11-26T05:16:05.337Z,4.60
2018-11-26T05:17:05.390Z,4.50
2018-11-26T05:18:05.481Z,4.50
2018-11-26T05:19:05.567Z,4.60
2018-11-26T05:20:05.691Z,4.50
2018-11-26T05:21:04.791Z,4.50
2018-11-26T05:22:04.894Z,4.50
2018-11-26T05:23:10.175Z,4.50
2018-11-26T05:24:07.653Z,4.60
2018-11-26T05:25:05.066Z,4.50
2018-11-26T05:26:05.543Z,4.60
2018-11-26T05:27:08.274Z,4.50
2018-11-26T05:28:05.127Z,4.60
2018-11-26T05:29:07.252Z,4.60
2018-11-26T05:30:05.345Z,4.50
2018-11-26T05:31:08.129Z,4.50
2018-11-26T05:32:05.174Z,4.60
2018-11-26T05:33:05.276Z,4.60
2018-11-26T05:34:05.348Z,4.60
2018-11-26T05:35:13.092Z,4.50
2018-11-26T05:36:05.091Z,4.60
2018-11-26T05:37:05.150Z,4.60
2018-11-26T05:38:05.535Z,4.50
2018-11-26T05:39:08.207Z,4.50
2018-11-26T05:40:07.853Z,4.50
2018-11-26T05:41:07.438Z,4.50
2018-11-26T05:42:05.476Z,4.50
2018-11-26T05:43:05.481Z,4.50
2018-11-26T05:44:08.205Z,4.50
2018-11-26T05:45:07.767Z,4.50
2018-11-26T05:46:04.714Z,4.50
2018-11-26T05:47:07.393Z,4.50
2018-11-26T05:48:07.960Z,4.50
2018-11-26T05:49:10.000Z,4.50
2018-11-26T05:50:04.935Z,4.50
2018-11-26T05:51:05.138Z,4.50
2018-11-26T05:52:05.241Z,4.50
2018-11-26T05:53:05.428Z,4.50
2018-11-26T05:54:05.462Z,4.50
2018-11-26T05:55:08.177Z,4.50
2018-11-26T05:56:05.124Z,4.50
2018-11-26T05:57:07.854Z,4.50
2018-11-26T05:58:04.796Z,4.50
2018-11-26T05:59:04.987Z,4.60
2018-11-26T06:00:07.946Z,4.50
2018-11-26T06:01:04.980Z,4.50
2018-11-26T06:02:05.090Z,4.50
2018-11-26T06:03:07.703Z,4.50
2018-11-26T06:04:07.337Z,4.50
2018-11-26T06:05:07.831Z,4.50
2018-11-26T06:06:07.259Z,4.50
2018-11-26T06:07:07.716Z,4.50
2018-11-26T06:08:04.776Z,4.50
2018-11-26T06:09:04.844Z,4.50
2018-11-26T06:10:04.954Z,4.50
2018-11-26T06:11:05.104Z,4.50
2018-11-26T06:12:10.461Z,4.50
2018-11-26T06:13:05.614Z,4.50
2018-11-26T06:14:04.631Z,4.50
2018-11-26T06:15:04.674Z,4.50
2018-11-26T06:16:05.040Z,4.50
2018-11-26T06:17:07.695Z,4.50
2018-11-26T06:18:05.596Z,4.50
2018-11-26T06:19:07.179Z,4.50
2018-11-26T06:20:07.618Z,4.60
2018-11-26T06:21:08.036Z,4.50
2018-11-26T06:22:04.903Z,4.50
2018-11-26T06:23:05.048Z,4.50
2018-11-26T06:24:05.079Z,4.50
2018-11-26T06:25:07.761Z,4.50
2018-11-26T06:26:07.360Z,4.60
2018-11-26T06:27:05.289Z,4.50
2018-11-26T06:28:07.898Z,4.50
2018-11-26T06:29:04.843Z,4.50
2018-11-26T06:30:05.048Z,4.60
2018-11-26T06:31:07.520Z,4.50
2018-11-26T06:32:05.454Z,4.50
2018-11-26T06:33:05.514Z,4.50
2018-11-26T06:34:05.639Z,4.50
2018-11-26T06:35:07.488Z,4.50
2018-11-26T06:36:10.590Z,4.50
2018-11-26T06:37:05.493Z,4.50
2018-11-26T06:38:08.073Z,4.60
2018-11-26T06:39:05.019Z,4.50
2018-11-26T06:40:05.129Z,4.60
2018-11-26T06:41:05.240Z,4.60
2018-11-26T06:42:07.832Z,4.50
2018-11-26T06:43:04.730Z,4.50
2018-11-26T06:44:07.288Z,4.60
2018-11-26T06:45:05.178Z,4.60
2018-11-26T06:46:05.196Z,4.60
2018-11-26T06:47:05.300Z,4.60
2018-11-26T06:48:05.339Z,4.50
2018-11-26T06:49:05.385Z,4.60
2018-11-26T06:50:05.461Z,4.50
2018-11-26T06:51:05.469Z,4.50
2018-11-26T06:52:05.611Z,4.60
2018-11-26T06:53:04.720Z,4.50
2018-11-26T06:54:04.768Z,4.60
2018-11-26T06:55:07.377Z,4.50
2018-11-26T06:56:05.363Z,4.50
2018-11-26T06:57:05.395Z,4.60
2018-11-26T06:58:07.932Z,4.60
2018-11-26T06:59:04.836Z,4.50
2018-11-26T07:00:15.126Z,4.50
2018-11-26T07:01:07.793Z,4.60
2018-11-26T07:02:04.816Z,4.60
2018-11-26T07:03:05.010Z,4.60
2018-11-26T07:04:05.115Z,4.50
2018-11-26T07:05:07.671Z,4.50
2018-11-26T07:06:05.576Z,4.50
2018-11-26T07:07:05.553Z,4.60
2018-11-26T07:08:13.159Z,4.50
2018-11-26T07:09:05.213Z,4.50
2018-11-26T07:10:05.334Z,4.50
2018-11-26T07:11:08.004Z,4.50
2018-11-26T07:12:07.432Z,4.50
2018-11-26T07:13:05.416Z,4.50
2018-11-26T07:14:08.077Z,4.50
2018-11-26T07:15:04.974Z,4.50
2018-11-26T07:16:05.107Z,4.40
2018-11-26T07:17:05.264Z,4.40
2018-11-26T07:18:05.653Z,4.40
2018-11-26T07:19:04.700Z,4.40
2018-11-26T07:20:07.292Z,4.40
2018-11-26T07:21:07.687Z,4.40
2018-11-26T07:22:05.602Z,4.40
2018-11-26T07:23:07.341Z,4.40
2018-11-26T07:24:05.235Z,4.40
2018-11-26T07:25:05.256Z,4.40
2018-11-26T07:26:05.359Z,4.30
2018-11-26T07:27:05.408Z,4.40
2018-11-26T07:28:08.153Z,4.40
2018-11-26T07:29:04.922Z,4.40
2018-11-26T07:30:04.946Z,4.40
2018-11-26T07:31:05.057Z,4.30
2018-11-26T07:32:05.169Z,4.30
2018-11-26T07:33:05.457Z,4.30
2018-11-26T07:34:05.522Z,4.40
2018-11-26T07:35:08.124Z,4.30
2018-11-26T07:36:11.132Z,4.30
2018-11-26T07:37:07.883Z,4.30
2018-11-26T07:38:04.830Z,4.30
2018-11-26T07:39:04.960Z,4.30
2018-11-26T07:40:04.972Z,4.40
2018-11-26T07:41:05.105Z,4.30
2018-11-26T07:43:04.892Z,4.30
2018-11-26T07:44:08.283Z,4.30
2018-11-26T07:45:08.064Z,4.30
2018-11-26T07:46:07.611Z,4.30
2018-11-26T07:47:05.646Z,4.30
2018-11-26T07:48:07.287Z,4.30
2018-11-26T07:49:05.346Z,4.30
2018-11-26T07:50:05.378Z,4.30
2018-11-26T07:51:05.579Z,4.30
2018-11-26T07:52:05.698Z,4.30
2018-11-26T07:53:12.507Z,4.30
2018-11-26T07:54:08.034Z,4.30
2018-11-26T07:55:05.038Z,4.30
2018-11-26T07:56:05.104Z,4.30
2018-11-26T07:57:07.681Z,4.30
2018-11-26T07:58:08.220Z,4.30
2018-11-26T07:59:05.125Z,4.30
2018-11-26T08:00:05.175Z,4.30
2018-11-26T08:01:07.965Z,4.30
2018-11-26T08:02:05.040Z,4.30
2018-11-26T08:03:05.132Z,4.30
2018-11-26T08:04:05.524Z,4.30
2018-11-26T08:05:08.171Z,4.20
2018-11-26T08:06:08.703Z,4.20
2018-11-26T08:07:07.579Z,4.20
2018-11-26T08:08:05.612Z,4.20
2018-11-26T08:09:04.719Z,4.30
2018-11-26T08:10:04.909Z,4.20
2018-11-26T08:11:04.967Z,4.30
2018-11-26T08:12:07.568Z,4.20
2018-11-26T08:13:05.609Z,4.20
2018-11-26T08:14:04.796Z,4.20
2018-11-26T08:15:05.201Z,4.20
2018-11-26T08:16:05.309Z,4.20
2018-11-26T08:17:05.394Z,4.20
2018-11-26T08:18:05.476Z,4.20
2018-11-26T08:19:05.479Z,4.20
2018-11-26T08:20:05.619Z,4.20
2018-11-26T08:21:17.272Z,4.20
2018-11-26T08:22:05.217Z,4.20
2018-11-26T08:23:07.797Z,4.20
2018-11-26T08:24:09.726Z,4.20
2018-11-26T08:25:04.704Z,4.20
2018-11-26T08:26:07.411Z,4.10
2018-11-26T08:27:05.493Z,4.20
2018-11-26T08:28:08.075Z,4.20
2018-11-26T08:29:04.990Z,4.10
2018-11-26T08:30:12.783Z,4.10
2018-11-26T08:31:04.774Z,4.10
2018-11-26T08:32:07.456Z,4.10
2018-11-26T08:33:05.478Z,4.10
2018-11-26T08:34:05.770Z,4.10
2018-11-26T08:35:04.887Z,4.10
2018-11-26T08:36:07.521Z,4.10
2018-11-26T08:37:05.480Z,4.10
2018-11-26T08:38:05.170Z,4.10
2018-11-26T08:39:07.920Z,4.10
2018-11-26T08:40:04.965Z,4.10
2018-11-26T08:41:05.027Z,4.10
2018-11-26T08:42:10.291Z,4.10
2018-11-26T08:43:05.420Z,4.10
2018-11-26T08:44:09.503Z,4.10
2018-11-26T08:45:07.372Z,4.10
2018-11-26T08:46:07.942Z,4.10
2018-11-26T08:47:05.094Z,4.10
2018-11-26T08:48:07.429Z,4.00
2018-11-26T08:49:05.457Z,4.10
2018-11-26T08:50:05.542Z,4.10
2018-11-26T08:51:04.604Z,4.10
2018-11-26T08:52:07.196Z,4.10
2018-11-26T08:53:05.232Z,4.00
2018-11-26T08:54:07.800Z,4.00
2018-11-26T08:55:04.777Z,4.00
2018-11-26T08:56:07.334Z,4.00
2018-11-26T08:57:05.216Z,4.00
2018-11-26T08:58:05.318Z,4.00
2018-11-26T08:59:07.895Z,4.00
2018-11-26T09:00:07.338Z,4.00
2018-11-26T09:01:05.395Z,4.00
2018-11-26T09:02:05.519Z,4.00
2018-11-26T09:03:05.595Z,4.00
2018-11-26T09:04:07.178Z,4.00
2018-11-26T09:05:05.154Z,3.90
2018-11-26T09:06:05.319Z,4.00
2018-11-26T09:07:10.566Z,4.00
2018-11-26T09:08:05.616Z,3.90
2018-11-26T09:09:07.267Z,3.90
2018-11-26T09:10:05.255Z,3.90
2018-11-26T09:11:05.359Z,3.90
2018-11-26T09:12:10.576Z,3.90
2018-11-26T09:13:08.080Z,3.90
2018-11-26T09:14:05.044Z,3.80
2018-11-26T09:15:05.065Z,3.90
2018-11-26T09:16:07.733Z,3.90
2018-11-26T09:17:04.866Z,3.90
2018-11-26T09:18:04.924Z,3.90
2018-11-26T09:19:04.946Z,3.90
2018-11-26T09:20:07.624Z,3.90
2018-11-26T09:21:04.788Z,3.90
2018-11-26T09:22:04.929Z,3.90
2018-11-26T09:23:05.021Z,3.90
2018-11-26T09:24:05.151Z,3.90
2018-11-26T09:25:05.242Z,3.90
2018-11-26T09:26:05.286Z,3.90
2018-11-26T09:27:09.687Z,3.90
2018-11-26T09:28:05.070Z,3.90
2018-11-26T09:29:05.464Z,3.90
2018-11-26T09:30:05.535Z,3.90
2018-11-26T09:31:05.756Z,3.90
2018-11-26T09:32:10.056Z,3.80
2018-11-26T09:33:07.670Z,3.90
2018-11-26T09:34:04.753Z,3.80
2018-11-26T09:35:07.623Z,3.90
2018-11-26T09:36:08.301Z,3.90
2018-11-26T09:37:05.461Z,3.90
2018-11-26T09:38:05.602Z,3.90
2018-11-26T09:39:04.777Z,3.80
2018-11-26T09:40:04.858Z,3.80
2018-11-26T09:41:05.013Z,3.80
2018-11-26T09:42:05.167Z,3.80
2018-11-26T09:43:05.275Z,3.90
2018-11-26T09:44:05.642Z,3.80
2018-11-26T09:45:04.839Z,3.90
2018-11-26T09:46:04.931Z,3.80
2018-11-26T09:47:05.129Z,3.80
2018-11-26T09:48:07.915Z,3.80
2018-11-26T09:49:04.694Z,3.80
2018-11-26T09:50:07.408Z,3.80
2018-11-26T09:51:05.415Z,3.80
2018-11-26T09:52:05.562Z,3.80
2018-11-26T09:53:05.727Z,3.80
2018-11-26T09:54:04.823Z,3.80
2018-11-26T09:55:07.529Z,3.80
2018-11-26T09:56:05.522Z,3.80
2018-11-26T09:57:08.238Z,3.80
2018-11-26T09:58:05.155Z,3.90
2018-11-26T09:59:05.321Z,3.80
2018-11-26T10:00:05.427Z,3.80
2018-11-26T10:01:08.057Z,3.80
2018-11-26T10:02:07.669Z,3.80
2018-11-26T10:03:04.620Z,3.90
2018-11-26T10:04:07.209Z,3.90
2018-11-26T10:05:07.764Z,3.90
2018-11-26T10:06:04.689Z,3.90
2018-11-26T10:07:07.271Z,3.90
2018-11-26T10:08:10.243Z,3.90
2018-11-26T10:09:05.315Z,3.90
2018-11-26T10:10:07.941Z,3.80
2018-11-26T10:11:04.869Z,3.80
2018-11-26T10:12:04.988Z,3.90
2018-11-26T10:13:05.067Z,3.90
2018-11-26T10:14:07.829Z,3.80
2018-11-26T10:15:04.775Z,3.80
2018-11-26T10:16:04.865Z,3.80
2018-11-26T10:17:07.552Z,3.90
2018-11-26T10:18:08.052Z,3.90
2018-11-26T10:19:05.214Z,3.90
2018-11-26T10:20:05.432Z,3.90
2018-11-26T10:21:05.666Z,3.90
2018-11-26T10:22:04.802Z,3.90
2018-11-26T10:23:05.028Z,3.90
2018-11-26T10:24:07.693Z,3.90
2018-11-26T10:25:05.860Z,3.90
2018-11-26T10:26:05.156Z,3.90
2018-11-26T10:27:05.345Z,3.90
2018-11-26T10:28:05.443Z,3.90
2018-11-26T10:29:07.611Z,3.90
2018-11-26T10:30:08.040Z,3.90
2018-11-26T10:31:07.583Z,3.90
2018-11-26T10:32:05.545Z,3.90
2018-11-26T10:33:14.582Z,3.80
2018-11-26T10:34:07.501Z,3.90
2018-11-26T10:35:05.497Z,3.90
2018-11-26T10:36:05.655Z,3.90
2018-11-26T10:37:04.935Z,3.90
2018-11-26T10:38:05.079Z,3.90
2018-11-26T10:39:07.753Z,3.90
2018-11-26T10:40:07.244Z,3.90
2018-11-26T10:41:07.752Z,3.90
2018-11-26T10:42:04.676Z,3.90
2018-11-26T10:43:07.777Z,3.90
2018-11-26T10:44:04.652Z,3.90
2018-11-26T10:45:07.406Z,3.90
2018-11-26T10:46:05.367Z,3.90
2018-11-26T10:47:08.182Z,3.90
2018-11-26T10:48:07.786Z,3.90
2018-11-26T10:49:05.278Z,3.90
2018-11-26T10:50:05.561Z,3.90
2018-11-26T10:51:07.253Z,3.90
2018-11-26T10:52:05.289Z,3.90
2018-11-26T10:53:08.121Z,3.90
2018-11-26T10:54:05.142Z,3.90
2018-11-26T10:55:05.206Z,3.90
2018-11-26T10:56:05.313Z,3.90
2018-11-26T10:57:05.387Z,3.90
2018-11-26T10:58:05.381Z,4.00
2018-11-26T10:59:05.476Z,3.90
2018-11-26T11:00:05.564Z,3.90
2018-11-26T11:01:04.656Z,3.90
2018-11-26T11:02:04.686Z,3.90
2018-11-26T11:03:04.845Z,4.00
2018-11-26T11:04:04.874Z,4.00
2018-11-26T11:05:07.572Z,4.00
2018-11-26T11:06:08.093Z,4.00
2018-11-26T11:07:05.005Z,4.00
2018-11-26T11:08:05.208Z,4.00
2018-11-26T11:09:05.302Z,4.00
2018-11-26T11:10:05.487Z,4.00
2018-11-26T11:11:05.612Z,3.90
2018-11-26T11:12:04.679Z,4.00
2018-11-26T11:13:07.233Z,4.00
2018-11-26T11:14:05.200Z,4.00
2018-11-26T11:15:05.334Z,4.00
2018-11-26T11:16:05.476Z,4.00
2018-11-26T11:17:08.041Z,4.00
2018-11-26T11:18:04.971Z,4.00
2018-11-26T11:19:05.111Z,4.00
2018-11-26T11:20:05.225Z,4.00
2018-11-26T11:21:10.450Z,3.90
2018-11-26T11:22:05.430Z,3.90
2018-11-26T11:23:05.552Z,3.90
2018-11-26T11:24:07.376Z,3.90
2018-11-26T11:25:05.339Z,4.00
2018-11-26T11:26:07.972Z,4.00
2018-11-26T11:27:04.852Z,3.90
2018-11-26T11:28:05.016Z,3.90
2018-11-26T11:29:07.639Z,3.90
2018-11-26T11:30:05.735Z,3.90
2018-11-26T11:31:07.387Z,3.90
2018-11-26T11:32:05.330Z,3.90
2018-11-26T11:34:05.539Z,3.90
2018-11-26T11:35:08.222Z,3.90
2018-11-26T11:36:07.695Z,3.90
2018-11-26T11:37:05.633Z,3.90
2018-11-26T11:38:07.211Z,3.90
2018-11-26T11:39:05.191Z,3.90
2018-11-26T11:40:05.251Z,3.90
2018-11-26T11:41:05.388Z,3.90
2018-11-26T11:42:08.032Z,3.90
2018-11-26T11:43:05.072Z,3.80
2018-11-26T11:44:05.183Z,3.80
2018-11-26T11:45:05.266Z,3.80
2018-11-26T11:46:07.862Z,3.80
2018-11-26T11:47:04.917Z,3.80
2018-11-26T11:48:04.966Z,3.80
2018-11-26T11:49:07.557Z,3.80
2018-11-26T11:50:05.537Z,3.80
2018-11-26T11:51:05.620Z,3.80
2018-11-26T11:52:04.864Z,3.80
2018-11-26T11:53:04.987Z,3.80
2018-11-26T11:54:05.115Z,3.80
2018-11-26T11:55:07.658Z,3.70
2018-11-26T11:56:05.571Z,3.70
2018-11-26T11:57:04.668Z,3.70
2018-11-26T11:58:07.294Z,3.70
2018-11-26T11:59:05.207Z,3.70
2018-11-26T12:00:05.345Z,3.70
2018-11-26T12:01:10.514Z,3.70
2018-11-26T12:02:04.691Z,3.80
2018-11-26T12:03:04.815Z,3.70
2018-11-26T12:04:04.945Z,3.70
2018-11-26T12:05:05.578Z,3.70
2018-11-26T12:06:07.219Z,3.70
2018-11-26T12:07:10.243Z,3.70
2018-11-26T12:08:07.698Z,3.70
2018-11-26T12:09:05.612Z,3.70
2018-11-26T12:10:04.604Z,3.70
2018-11-26T12:11:07.222Z,3.70
2018-11-26T12:12:07.643Z,3.70
2018-11-26T12:13:05.519Z,3.70
2018-11-26T12:14:05.543Z,3.70
2018-11-26T12:15:08.245Z,3.70
2018-11-26T12:16:05.233Z,3.70
2018-11-26T12:17:05.357Z,3.70
2018-11-26T12:18:05.400Z,3.70
2018-11-26T12:19:05.542Z,3.70
2018-11-26T12:20:04.648Z,3.70
2018-11-26T12:21:04.787Z,3.70
2018-11-26T12:22:05.003Z,3.70
2018-11-26T12:23:05.278Z,3.70
2018-11-26T12:24:05.380Z,3.70
2018-11-26T12:25:05.463Z,3.60
2018-11-26T12:26:05.535Z,3.60
2018-11-26T12:27:04.617Z,3.60
2018-11-26T12:28:04.668Z,3.60
2018-11-26T12:29:04.731Z,3.60
2018-11-26T12:30:04.782Z,3.60
2018-11-26T12:31:04.789Z,3.60
2018-11-26T12:32:04.780Z,3.60
2018-11-26T12:33:05.260Z,3.60
2018-11-26T12:34:05.361Z,3.60
2018-11-26T12:35:05.440Z,3.60
2018-11-26T12:36:04.654Z,3.60
2018-11-26T12:37:07.376Z,3.50
2018-11-26T12:38:05.523Z,3.50
2018-11-26T12:39:07.240Z,3.60
2018-11-26T12:40:05.354Z,3.50
2018-11-26T12:41:07.371Z,3.50
2018-11-26T12:42:05.401Z,3.50
2018-11-26T12:43:05.523Z,3.50
2018-11-26T12:44:05.720Z,3.50
2018-11-26T12:45:04.830Z,3.50
2018-11-26T12:46:05.010Z,3.50
2018-11-26T12:47:07.648Z,3.50
2018-11-26T12:48:05.623Z,3.50
2018-11-26T12:49:07.653Z,3.50
2018-11-26T12:50:10.852Z,3.40
2018-11-26T12:51:07.463Z,3.50
2018-11-26T12:52:05.589Z,3.40
2018-11-26T12:53:04.709Z,3.40
2018-11-26T12:54:07.538Z,3.40
2018-11-26T12:55:05.556Z,3.40
2018-11-26T12:56:04.786Z,3.40
2018-11-26T12:57:07.654Z,3.40
2018-11-26T12:58:08.615Z,3.40
2018-11-26T12:59:05.617Z,3.40
2018-11-26T13:00:04.819Z,3.40
2018-11-26T13:01:05.097Z,3.40
2018-11-26T13:02:05.168Z,3.40
2018-11-26T13:03:05.307Z,3.40
2018-11-26T13:04:10.642Z,3.40
2018-11-26T13:05:05.586Z,3.40
2018-11-26T13:06:07.190Z,3.30
2018-11-26T13:07:05.071Z,3.40
2018-11-26T13:08:05.268Z,3.30
2018-11-26T13:09:05.418Z,3.30
2018-11-26T13:10:05.524Z,3.40
2018-11-26T13:11:04.683Z,3.30
2018-11-26T13:12:07.272Z,3.30
2018-11-26T13:13:05.146Z,3.30
2018-11-26T13:14:07.789Z,3.30
2018-11-26T13:15:07.317Z,3.30
2018-11-26T13:16:05.200Z,3.30
2018-11-26T13:17:07.836Z,3.30
2018-11-26T13:18:04.978Z,3.30
2018-11-26T13:19:09.807Z,3.30
2018-11-26T13:20:07.239Z,3.30